Coonabarabran Namoi Street, Australia
Current Conditions -  °F | °C
As of 3:00 AM on Friday 28 Nov 2014 (Local Time) from YSDU Reporting Station
Clear Clear  
Wind Chill: 63°   Ceiling: Unl
Heat Index: 63°   Visibility: 6mi
Dew Point: 54°   Wind: 15mph
Humidity: 72%   Direction: 100°E
Pressure: 30.09"   Gusts: NA
Location:  31.27°S, 149.27°E
Report Text: YSDU 271600Z AUTO 10013KT 9999 // NCD 17/12 Q1019
Loading
Personal Weather Stations






























Interactive Weather Map New forecast layout! Learn more

10-Day Weather Forecast

Advertisements
Track Severe Weather on mobile